.
WxDataArchive / Data Records for 2008-03-22
2008-03-21 March 2008 2008-03-23

Data Records for Saturday, 22 March 2008

Time	Temp	Chill	HIndex	Humid	Dewpt	 Wind 	HiWind	WindDir	Rain 	Barom 
-----	----	-----	------	-----	-----	------	------	-------	-----	----- 
00:00	32.2	28.3	32.2	92	30.1	4	11	68	0.01	29.907 
00:05	32.2	26.5	32.2	92	30.1	6	12	112	0.00	29.901 
00:10	32.2	26.5	32.2	92	30.1	6	13	112	0.00	29.901 
00:15	32.2	28.3	32.2	92	30.1	4	10	112	0.00	29.900 
00:20	32.2	27.3	32.2	92	30.1	5	14	112	0.00	29.899 
00:25	32.2	26.5	32.2	92	30.1	6	12	112	0.00	29.893 
00:30	32.2	27.3	32.2	92	30.1	5	13	112	0.00	29.900 
00:35	32.2	28.3	32.2	92	30.1	4	11	112	0.00	29.902 
00:40	32.1	32.1	32.1	92	30.0	3	13	90	0.00	29.901 
00:45	32.1	32.1	32.1	92	30.0	3	7	112	0.00	29.900 
00:50	32.1	32.1	32.1	92	30.0	3	7	112	0.00	29.898 
00:55	31.9	27.0	31.9	92	29.8	5	13	112	0.00	29.889 
01:00	31.9	27.0	31.9	92	29.8	5	10	112	0.00	29.900 
01:05	31.8	31.8	31.8	92	29.7	1	6	158	0.00	29.900 
01:10	31.8	26.8	31.8	92	29.7	5	13	112	0.00	29.898 
01:15	31.8	31.8	31.8	92	29.7	3	10	90	0.00	29.893 
01:20	31.6	27.6	31.6	92	29.5	4	14	90	0.00	29.885 
01:25	31.6	27.6	31.6	92	29.5	4	11	112	0.00	29.889 
01:30	31.3	27.3	31.3	92	29.3	4	9	112	0.00	29.889 
01:35	31.2	27.2	31.2	92	29.2	4	11	112	0.00	29.886 
01:40	31.2	31.2	31.2	92	29.2	3	11	112	0.00	29.888 
01:45	31.2	27.2	31.2	92	29.2	4	11	112	0.00	29.888 
01:50	31.2	26.1	31.2	92	29.2	5	12	112	0.00	29.886 
01:55	31.3	24.7	31.3	92	29.3	7	13	112	0.00	29.885 
02:00	31.3	27.3	31.3	92	29.3	4	10	112	0.00	29.887 
02:05	31.0	26.9	31.0	92	29.0	4	13	112	0.00	29.889 
02:10	30.9	30.9	30.9	92	28.9	2	6	112	0.00	29.894 
02:15	30.7	30.7	30.7	92	28.7	3	9	45	0.00	29.899 
02:20	30.6	30.6	30.6	92	28.6	2	4	22	0.00	29.898 
02:25	30.6	26.5	30.6	92	28.6	4	12	90	0.00	29.897 
02:30	30.6	30.6	30.6	92	28.6	3	7	112	0.00	29.899 
02:35	30.6	30.6	30.6	92	28.6	2	5	112	0.00	29.897 
02:40	30.4	30.4	30.4	92	28.4	3	6	112	0.00	29.896 
02:45	30.3	30.3	30.3	92	28.3	3	9	45	0.00	29.900 
02:50	30.3	30.3	30.3	92	28.3	3	10	45	0.00	29.900 
02:55	30.4	30.4	30.4	92	28.4	1	9	45	0.00	29.900 
03:00	30.3	30.3	30.3	92	28.3	2	10	45	0.00	29.899 
03:05	30.3	30.3	30.3	92	28.3	3	9	68	0.00	29.898 
03:10	30.3	30.3	30.3	92	28.3	3	7	45	0.00	29.899 
03:15	30.1	30.1	30.1	92	28.1	2	6	112	0.00	29.901 
03:20	30.1	30.1	30.1	92	28.1	2	6	22	0.00	29.906 
03:25	30.0	30.0	30.0	92	28.0	2	7	90	0.00	29.905 
03:30	30.0	30.0	30.0	92	28.0	3	7	112	0.00	29.906 
03:35	29.8	29.8	29.8	91	27.5	3	9	68	0.00	29.912 
03:40	29.7	29.7	29.7	91	27.4	3	8	112	0.00	29.909 
03:45	29.7	29.7	29.7	91	27.4	2	6	112	0.00	29.914 
03:50	29.5	29.5	29.5	91	27.2	2	5	45	0.00	29.916 
03:55	29.4	29.4	29.4	91	27.1	3	7	112	0.00	29.917 
04:00	29.3	25.0	29.3	91	27.0	4	11	45	0.00	29.915 
04:05	29.1	29.1	29.1	91	26.8	3	9	112	0.00	29.920 
04:10	29.0	29.0	29.0	91	26.7	3	7	45	0.00	29.922 
04:15	28.8	28.8	28.8	91	26.5	3	10	112	0.00	29.931 
04:20	28.8	28.8	28.8	91	26.5	3	11	112	0.00	29.937 
04:25	28.7	28.7	28.7	91	26.4	3	11	90	0.00	29.948 
04:30	28.7	28.7	28.7	91	26.4	2	6	90	0.00	29.948 
04:35	28.7	28.7	28.7	91	26.4	2	8	45	0.00	29.948 
04:40	28.5	28.5	28.5	91	26.2	3	6	45	0.00	29.950 
04:45	28.5	28.5	28.5	91	26.2	2	7	112	0.00	29.951 
04:50	28.5	28.5	28.5	91	26.2	3	9	112	0.00	29.951 
04:55	28.4	28.4	28.4	91	26.1	3	10	90	0.00	29.950 
05:00	28.2	23.7	28.2	91	25.9	4	7	90	0.00	29.950 
05:05	28.4	28.4	28.4	91	26.1	2	6	45	0.00	29.951 
05:10	28.4	28.4	28.4	91	26.1	2	10	45	0.00	29.952 
05:15	28.2	28.2	28.2	91	25.9	2	6	112	0.00	29.953 
05:20	28.1	28.1	28.1	91	25.8	3	6	22	0.00	29.954 
05:25	27.9	27.9	27.9	91	25.6	2	4	45	0.00	29.954 
05:30	27.8	27.8	27.8	91	25.5	3	9	45	0.00	29.954 
05:35	27.6	27.6	27.6	90	25.1	3	10	45	0.00	29.959 
05:40	27.5	27.5	27.5	90	25.0	3	12	45	0.00	29.967 
05:45	27.3	27.3	27.3	90	24.8	2	4	22	0.00	29.968 
05:50	27.3	27.3	27.3	91	25.0	1	4	45	0.00	29.970 
05:55	27.2	27.2	27.2	90	24.7	2	7	22	0.00	29.971 
06:00	26.9	26.9	26.9	90	24.4	3	6	45	0.00	29.974 
06:05	26.9	26.9	26.9	90	24.4	3	6	68	0.00	29.977 
06:10	26.7	26.7	26.7	90	24.2	2	4	112	0.00	29.984 
06:15	26.7	26.7	26.7	90	24.2	2	5	90	0.00	29.988 
06:20	26.6	26.6	26.6	90	24.1	2	7	22	0.00	29.991 
06:25	26.4	26.4	26.4	90	23.9	2	5	45	0.00	29.996 
06:30	26.4	26.4	26.4	90	23.9	2	7	45	0.00	30.002 
06:35	26.3	26.3	26.3	90	23.8	2	7	45	0.00	30.004 
06:40	26.3	26.3	26.3	90	23.8	2	6	45	0.00	30.011 
06:45	26.1	26.1	26.1	90	23.6	2	5	68	0.00	30.017 
06:50	26.0	26.0	26.0	90	23.5	2	7	45	0.00	30.018 
06:55	25.8	25.8	25.8	89	23.0	2	7	45	0.00	30.020 
07:00	25.8	25.8	25.8	89	23.0	3	7	45	0.00	30.022 
07:05	25.7	25.7	25.7	89	22.9	2	6	45	0.00	30.026 
07:10	25.7	25.7	25.7	89	22.9	1	4	45	0.00	30.029 
07:15	25.6	25.6	25.6	89	22.8	2	5	45	0.00	30.032 
07:20	25.6	25.6	25.6	88	22.5	1	4	45	0.00	30.034 
07:25	25.4	25.4	25.4	87	22.1	3	7	45	0.00	30.036 
07:30	25.4	25.4	25.4	86	21.8	2	5	68	0.00	30.038 
07:35	25.3	25.3	25.3	85	21.4	2	8	112	0.00	30.038 
07:40	25.3	25.3	25.3	84	21.2	2	6	68	0.00	30.041 
07:45	25.1	25.1	25.1	83	20.7	3	7	45	0.00	30.040 
07:50	25.3	25.3	25.3	82	20.6	3	5	45	0.00	30.041 
07:55	25.3	25.3	25.3	82	20.6	3	8	90	0.00	30.045 
08:00	25.3	25.3	25.3	82	20.6	2	5	45	0.00	30.050 
08:05	25.3	25.3	25.3	83	20.9	1	4	45	0.00	30.052 
08:10	25.4	25.4	25.4	84	21.3	1	3	68	0.00	30.053 
08:15	25.4	25.4	25.4	83	21.0	2	6	315	0.00	30.054 
08:20	25.4	25.4	25.4	83	21.0	2	4	45	0.00	30.057 
08:25	25.4	25.4	25.4	83	21.0	2	7	112	0.00	30.061 
08:30	25.4	25.4	25.4	83	21.0	2	6	22	0.00	30.063 
08:35	25.4	25.4	25.4	83	21.0	3	7	90	0.00	30.066 
08:40	25.3	25.3	25.3	83	20.9	3	7	45	0.00	30.068 
08:45	25.1	25.1	25.1	84	21.0	2	6	68	0.00	30.069 
08:50	25.1	25.1	25.1	85	21.2	2	6	90	0.00	30.070 
08:55	25.3	25.3	25.3	85	21.4	2	6	112	0.00	30.074 
09:00	25.3	25.3	25.3	85	21.4	2	9	45	0.00	30.080 
09:05	25.1	25.1	25.1	84	21.0	2	11	90	0.00	30.083 
09:10	25.0	25.0	25.0	83	20.6	3	7	22	0.00	30.084 
09:15	25.0	25.0	25.0	82	20.3	2	6	22	0.00	30.087 
09:20	25.1	25.1	25.1	82	20.4	3	6	90	0.00	30.091 
09:25	25.3	25.3	25.3	82	20.6	2	4	112	0.00	30.094 
09:30	25.4	25.4	25.4	81	20.4	2	5	68	0.00	30.100 
09:35	25.4	25.4	25.4	78	19.5	2	7	68	0.00	30.101 
09:40	25.6	25.6	25.6	77	19.4	3	10	22	0.00	30.102 
09:45	25.8	25.8	25.8	75	19.0	2	6	68	0.00	30.104 
09:50	26.0	26.0	26.0	71	17.9	3	8	22	0.00	30.107 
09:55	26.3	26.3	26.3	70	17.9	2	7	45	0.00	30.112 
10:00	26.7	26.7	26.7	69	17.9	2	6	112	0.00	30.114 
10:05	26.9	26.9	26.9	70	18.4	3	7	45	0.00	30.116 
10:10	27.0	27.0	27.0	71	18.9	2	6	45	0.00	30.120 
10:15	26.9	26.9	26.9	73	19.4	1	5	0	0.00	30.122 
10:20	26.9	26.9	26.9	76	20.4	2	5	45	0.00	30.128 
10:25	26.6	26.6	26.6	76	20.1	2	6	22	0.00	30.130 
10:30	26.6	26.6	26.6	78	20.7	2	9	45	0.00	30.131 
10:35	26.6	26.6	26.6	79	21.0	2	5	45	0.00	30.131 
10:40	26.6	26.6	26.6	78	20.7	1	4	135	0.00	30.132 
10:45	26.7	26.7	26.7	77	20.5	2	5	112	0.00	30.136 
10:50	27.0	27.0	27.0	77	20.8	1	4	90	0.01	30.139 
10:55	27.2	27.2	27.2	77	21.0	1	3	0	0.00	30.140 
11:00	27.3	27.3	27.3	78	21.4	1	4	22	0.00	30.142 
11:05	27.6	27.6	27.6	79	22.0	1	5	135	0.00	30.142 
11:10	27.8	27.8	27.8	78	21.8	2	6	45	0.00	30.142 
11:15	28.1	28.1	28.1	78	22.1	1	5	68	0.00	30.143 
11:20	27.9	27.9	27.9	77	21.6	2	5	22	0.00	30.142 
11:25	27.9	27.9	27.9	76	21.3	2	5	45	0.00	30.142 
11:30	28.4	28.4	28.4	74	21.2	1	3	22	0.00	30.142 
11:35	29.1	29.1	29.1	73	21.5	1	4	45	0.00	30.143 
11:40	29.5	29.5	29.5	67	19.9	1	6	0	0.00	30.141 
11:45	30.1	30.1	30.1	67	20.5	0	3	68	0.00	30.141 
11:50	30.7	30.7	30.7	63	19.6	0	2	22	0.00	30.142 
11:55	31.3	31.3	31.3	63	20.2	1	4	22	0.00	30.143 
12:00	32.1	32.1	32.1	61	20.2	1	4	22	0.00	30.144 
12:05	32.2	32.2	32.2	58	19.1	1	3	158	0.00	30.145 
12:10	32.7	32.7	32.7	58	19.6	1	5	22	0.00	30.147 
12:15	32.8	32.8	32.8	51	16.7	2	6	45	0.00	30.148 
12:20	32.8	32.8	32.8	54	18.0	1	6	45	0.00	30.149 
12:25	33.2	33.2	33.2	55	18.8	0	2	68	0.00	30.149 
12:30	33.7	33.7	33.7	50	17.1	2	7	338	0.00	30.150 
12:35	33.7	33.7	33.7	48	16.1	1	6	90	0.00	30.153 
12:40	33.8	33.8	33.8	51	17.6	2	5	90	0.00	30.154 
12:45	34.3	34.3	34.3	52	18.5	1	3	315	0.00	30.155 
12:50	35.0	35.0	35.0	55	20.5	1	4	315	0.00	30.155 
12:55	35.2	35.2	35.2	50	18.4	2	6	68	0.00	30.157 
13:00	35.2	35.2	35.2	47	17.0	1	3	22	0.00	30.157 
13:05	35.3	35.3	35.3	48	17.6	1	7	45	0.00	30.155 
13:10	35.3	35.3	35.3	46	16.6	1	4	112	0.01	30.155 
13:15	35.5	35.5	35.5	47	17.3	2	6	22	0.00	30.156 
13:20	35.5	35.5	35.5	49	18.3	2	6	68	0.00	30.158 
13:25	35.6	35.6	35.6	45	16.4	2	7	112	0.00	30.158 
13:30	35.8	35.8	35.8	44	16.0	2	4	68	0.00	30.157 
13:35	36.3	36.3	36.3	51	19.9	1	4	112	0.00	30.158 
13:40	36.5	36.5	36.5	39	13.9	1	4	22	0.00	30.158 
13:45	36.3	36.3	36.3	41	14.9	1	6	0	0.00	30.156 
13:50	36.2	32.9	36.2	43	15.9	4	10	112	0.01	30.157 
13:55	36.5	36.5	36.5	43	16.2	2	6	90	0.00	30.158 
14:00	36.6	36.6	36.6	39	14.0	1	6	90	0.00	30.154 
14:05	36.9	36.9	36.9	36	12.5	2	5	112	0.00	30.155 
14:10	37.2	37.2	37.2	40	15.1	1	6	135	0.00	30.154 
14:15	37.0	37.0	37.0	36	12.6	1	5	0	0.00	30.154 
14:20	37.3	37.3	37.3	41	15.8	2	7	338	0.00	30.154 
14:25	37.6	37.6	37.6	41	16.1	1	4	45	0.00	30.152 
14:30	37.8	37.8	37.8	37	13.9	2	9	45	0.01	30.153 
14:35	37.5	37.5	37.5	39	14.8	2	6	112	0.00	30.156 
14:40	37.8	37.8	37.8	41	16.2	1	4	45	0.00	30.155 
14:45	37.6	37.6	37.6	35	12.5	1	5	22	0.00	30.156 
14:50	37.8	37.8	37.8	37	13.9	1	4	45	0.00	30.156 
14:55	38.0	38.0	38.0	39	15.3	1	4	45	0.00	30.157 
15:00	38.3	38.3	38.3	41	16.7	2	4	22	0.00	30.157 
15:05	38.3	38.3	38.3	40	16.1	2	7	90	0.00	30.163 
15:10	38.3	38.3	38.3	42	17.2	1	4	22	0.00	30.166 
15:15	38.2	38.2	38.2	38	14.9	1	5	112	0.00	30.166 
15:20	38.2	38.2	38.2	38	14.9	1	5	90	0.00	30.168 
15:25	38.2	38.2	38.2	41	16.6	2	5	112	0.00	30.167 
15:30	38.2	38.2	38.2	34	12.3	1	5	68	0.00	30.167 
15:35	38.0	38.0	38.0	40	15.8	1	5	90	0.00	30.169 
15:40	38.2	38.2	38.2	36	13.6	1	4	45	0.00	30.169 
15:45	38.0	38.0	38.0	34	12.2	1	5	90	0.00	30.168 
15:50	38.0	38.0	38.0	41	16.4	1	2	90	0.00	30.168 
15:55	38.2	38.2	38.2	41	16.6	1	4	90	0.00	30.169 
16:00	38.2	38.2	38.2	39	15.4	1	2	338	0.01	30.169 
16:05	38.3	38.3	38.3	41	16.7	1	4	315	0.00	30.170 
16:10	38.2	38.2	38.2	39	15.4	0	2	338	0.00	30.169 
16:15	38.2	38.2	38.2	37	14.2	1	4	45	0.00	30.169 
16:20	38.0	38.0	38.0	36	13.4	1	4	90	0.00	30.170 
16:25	38.0	38.0	38.0	35	12.8	1	3	90	0.00	30.169 
16:30	38.2	38.2	38.2	36	13.6	1	3	0	0.00	30.170 
16:35	38.0	38.0	38.0	39	15.3	1	4	45	0.00	30.170 
16:40	38.0	38.0	38.0	38	14.7	1	3	292	0.00	30.171 
16:45	38.0	38.0	38.0	39	15.3	1	3	45	0.00	30.172 
16:50	37.9	37.9	37.9	40	15.8	1	6	135	0.00	30.174 
16:55	37.9	37.9	37.9	42	16.9	1	4	112	0.00	30.177 
17:00	37.8	37.8	37.8	40	15.7	1	3	68	0.00	30.177 
17:05	37.8	37.8	37.8	36	13.3	0	3	315	0.00	30.181 
17:10	37.8	37.8	37.8	40	15.7	1	4	0	0.00	30.183 
17:15	37.6	37.6	37.6	40	15.5	1	3	112	0.00	30.184 
17:20	37.5	37.5	37.5	40	15.4	0	2	90	0.00	30.182 
17:25	37.3	37.3	37.3	38	14.0	1	3	338	0.00	30.183 
17:30	37.5	37.5	37.5	39	14.8	0	2	0	0.00	30.185 
17:35	37.3	37.3	37.3	43	16.9	1	6	68	0.00	30.186 
17:40	37.2	37.2	37.2	39	14.6	0	1	68	0.00	30.186 
17:45	37.0	37.0	37.0	41	15.5	0	2	68	0.00	30.186 
17:50	36.9	36.9	36.9	41	15.4	0	1	45	0.00	30.187 
17:55	36.8	36.8	36.8	40	14.8	0	3	45	0.00	30.188 
18:00	36.6	36.6	36.6	40	14.6	0	4	45	0.00	30.189 
18:05	36.5	36.5	36.5	39	13.9	0	2	45	0.00	30.192 
18:10	36.3	36.3	36.3	39	13.7	0	2	68	0.00	30.193 
18:15	36.0	36.0	36.0	39	13.5	0	3	135	0.00	30.196 
18:20	35.9	35.9	35.9	40	14.0	0	1	135	0.00	30.198 
18:25	35.6	35.6	35.6	41	14.2	0	1	135	0.00	30.201 
18:30	35.5	35.5	35.5	41	14.2	0	1	135	0.00	30.203 
18:35	35.2	35.2	35.2	42	14.4	0	1	135	0.00	30.205 
18:40	35.0	35.0	35.0	44	15.3	0	2	225	0.00	30.206 
18:45	35.0	35.0	35.0	45	15.8	0	1	225	0.00	30.207 
18:50	34.9	34.9	34.9	46	16.2	0	2	225	0.00	30.208 
18:55	34.7	34.7	34.7	47	16.6	0	1	292	0.00	30.208 
19:00	34.6	34.6	34.6	47	16.5	0	1	292	0.00	30.210 
19:05	34.3	34.3	34.3	47	16.2	0	1	292	0.00	30.213 
19:10	34.1	34.1	34.1	48	16.5	0	1	292	0.00	30.215 
19:15	33.8	33.8	33.8	48	16.2	0	1	292	0.00	30.217 
19:20	33.7	33.7	33.7	49	16.6	0	1	292	0.00	30.219 
19:25	33.4	33.4	33.4	49	16.3	0	1	292	0.00	30.219 
19:30	33.1	33.1	33.1	50	16.5	0	0	---	0.00	30.223 
19:35	32.8	32.8	32.8	50	16.2	0	0	---	0.00	30.223 
19:40	32.7	32.7	32.7	50	16.1	0	0	---	0.00	30.224 
19:45	32.5	32.5	32.5	50	16.0	0	1	292	0.00	30.225 
19:50	32.4	32.4	32.4	50	15.9	0	0	---	0.00	30.225 
19:55	32.2	32.2	32.2	50	15.7	0	0	---	0.00	30.230 
20:00	31.9	31.9	31.9	50	15.4	0	0	---	0.00	30.232 
20:05	31.8	31.8	31.8	50	15.3	0	0	---	0.00	30.235 
20:10	31.6	31.6	31.6	50	15.1	0	0	---	0.00	30.238 
20:15	31.5	31.5	31.5	50	15.0	0	0	---	0.00	30.239 
20:20	31.2	31.2	31.2	51	15.2	0	0	---	0.00	30.241 
20:25	31.0	31.0	31.0	52	15.5	0	0	---	0.00	30.242 
20:30	30.7	30.7	30.7	53	15.6	0	0	---	0.00	30.242 
20:35	30.6	30.6	30.6	54	16.0	0	0	---	0.00	30.243 
20:40	30.3	30.3	30.3	54	15.7	0	0	---	0.00	30.245 
20:45	30.0	30.0	30.0	55	15.8	0	0	---	0.00	30.246 
20:50	29.5	29.5	29.5	56	15.8	0	0	---	0.00	30.247 
20:55	29.4	29.4	29.4	57	16.1	0	0	---	0.00	30.249 
21:00	29.3	29.3	29.3	58	16.4	0	0	---	0.00	30.248 
21:05	29.3	29.3	29.3	60	17.2	0	0	---	0.00	30.246 
21:10	29.0	29.0	29.0	60	16.9	0	0	---	0.00	30.247 
21:15	28.7	28.7	28.7	60	16.6	0	0	---	0.00	30.248 
21:20	28.4	28.4	28.4	62	17.1	0	0	---	0.00	30.248 
21:25	28.1	28.1	28.1	62	16.8	0	0	---	0.00	30.248 
21:30	27.6	27.6	27.6	64	17.0	0	0	---	0.00	30.247 
21:35	27.5	27.5	27.5	65	17.3	0	0	---	0.00	30.245 
21:40	27.3	27.3	27.3	67	17.8	0	0	---	0.00	30.245 
21:45	27.2	27.2	27.2	67	17.7	0	0	---	0.00	30.245 
21:50	27.0	27.0	27.0	68	17.9	0	0	---	0.00	30.246 
21:55	27.0	27.0	27.0	69	18.2	0	0	---	0.00	30.247 
22:00	26.9	26.9	26.9	70	18.4	0	0	---	0.00	30.246 
22:05	26.7	26.7	26.7	71	18.6	0	0	---	0.00	30.246 
22:10	26.6	26.6	26.6	71	18.5	0	0	---	0.00	30.247 
22:15	26.3	26.3	26.3	71	18.2	0	0	---	0.00	30.250 
22:20	26.1	26.1	26.1	73	18.7	0	0	---	0.00	30.250 
22:25	26.0	26.0	26.0	73	18.6	0	0	---	0.00	30.249 
22:30	25.8	25.8	25.8	73	18.4	0	0	---	0.00	30.248 
22:35	25.6	25.6	25.6	73	18.2	0	0	---	0.00	30.248 
22:40	25.4	25.4	25.4	74	18.3	0	0	---	0.00	30.247 
22:45	25.4	25.4	25.4	75	18.6	0	0	---	0.00	30.247 
22:50	25.3	25.3	25.3	75	18.5	0	0	---	0.00	30.246 
22:55	25.1	25.1	25.1	76	18.6	0	0	---	0.00	30.246 
23:00	25.0	25.0	25.0	76	18.5	0	0	---	0.00	30.246 
23:05	25.0	25.0	25.0	77	18.8	0	0	---	0.00	30.243 
23:10	25.0	25.0	25.0	78	19.1	0	0	---	0.00	30.243 
23:15	25.0	25.0	25.0	77	18.8	0	0	---	0.00	30.243 
23:20	25.0	25.0	25.0	77	18.8	0	0	---	0.00	30.242 
23:25	24.8	24.8	24.8	77	18.6	0	0	---	0.00	30.242 
23:30	24.7	24.7	24.7	77	18.5	0	0	---	0.00	30.243 
23:35	24.7	24.7	24.7	77	18.5	0	0	---	0.00	30.243 
23:40	24.7	24.7	24.7	77	18.5	0	0	---	0.00	30.243 
23:45	24.5	24.5	24.5	77	18.3	0	0	---	0.00	30.242 
23:50	24.4	24.4	24.4	77	18.2	0	0	---	0.00	30.242 
23:55	24.5	24.5	24.5	76	18.0	0	0	---	0.00	30.242 

CoCoRaHS
IN-AL-39
A2 Web Hosting
Creative Commons License
GoDaddy
Look for:

loaded 2017-10-17 22:36:18 • last modified 2010-11-18 10:43:29
Privacy PolicyDisclaimer
• wx.awcolley.com is powered by PmWiki v.2002016 •
• all content (unless otherwise noted) © 2017 A W Colley